Decoded Metar for USNN (NIZHNEVARTOVSK in RUSSIA) (IATA:NJC) | Meteo·Mobile Aviation Weather
aviador You're here:

USNN Decoded Metar

NIZHNEVARTOVSK in RUSSIA
Report Time2018-10-17 05:30:00
UTC Time2018-10-17 05:50:54
Flight Rules mvfr MVFR
Wind200° at 16 kt
W.Decomp.*RWY 21: 14.5 kt HW 6.8 kt LCW
W.Rank200° ranks 10
Current wind is above 200° avg. (9.0)
Visibility5000 m
Phenomena:Snow
Clouds:Broken 012 Hf
Overcast 022 Hf
Expected CloudBase > 400 ft AGL from Temp-Dew spread
Ceiling1,200 ft
Temp-1°C (ISA -16)
Dew Point-2°C (93% RH)
AAT-9.0°C
QNH1005 hPa
Density Alt-1,391 ft
Elevation177 ft
Report Wrong Elevation
Raw Report
USNN 170530Z 20008MPS 5000 -SN BKN012 OVC022 M01/M02 Q1005
R21/450533 TEMPO 1000 SN RMK QFE749=

Extra information for USNN:More info

Metar Taf Metar & Taf Last 4 Metars F.Rules Stats Wind Profile Meteogram Temp Stats Airport Information Weather charts Add Link Nearby VenuesMetar ALERT Operation Metar Decoded Social comments